Portada
METAR-TAF:

METAR-TAF

Aeroports :

Geraldton, Austràlia

latitud: 28-47-46S, longitud: 114-42-27E, altitud: 37 m

Observació

L'informe es va fer fa 40 minuts, a les 23:00 UTC
Vent 3 kt del Nord-Est
Temperatura 12°C
Humitat 76%
Pressió 1021 hPa
Visibilitat 10 km o més

METAR: YGEL 192300Z AUTO 04003KT 9999 // NCD 12/08 Q1021

Hora: 07:40 (23:40 UTC)

Pronòstic

L'informe es va fer fa 7 hores i 4 minuts, a les 16:36 UTC
Pronòstic vàlid del 19 a les 18 UTC al 20 a les 12 UTC
Vent 8 kt del Sud-Est
Visibilitat 10 km o més
sense núvols per sota de 1500 mi sense presència de cumulonimbus.
A partir de les 20 a les 0300 UTC
Vent 14 kt del Sud/Sud-Oest
Visibilitat 10 km o més
sense núvols per sota de 1500 mi sense presència de cumulonimbus.
A partir de les 20 a les 1000 UTC
Vent 10 kt del Sud/Sud-Oest
Visibilitat 10 km o més
Núvols disperses a una alçada de 2500 ft

TAF: YGEL 191636Z 1918/2012 14008KT CAVOK FM200300 20014KT CAVOK FM201000 20010KT 9999 SCT025

Observacions i pronòstics meteorològics de més de 4000 aeroports (METAR i TAF).

Les estacions disponibles són els punts grocs i vermells al mapa.

Posi el ratolí al punt desitjat per veure el nom de l'estació.

Feu clic per veure les observacions i els pronòstics meteorològics.

Per canviar el mapa: feu clic els botons verds amb una creu de color negre per apropar; al botó verd amb un guió per allunyar la imatge; o en les fletxes verdes per a mapes adjacents.


METAR-TAF: